Time;durP1;ratioP1;P1;durP2;ratioP2;P2;SDS_P1;SDS_P2;PMS_P1;PMS_P2;Temp;Humidity;BMP_temperature;BMP_pressure;BME280_temperature;BME280_humidity;BME280_pressure;Samples;Min_cycle;Max_cycle;Signal;HPM_P1;HPM_P2
2022/11/07 00:02:06;;;;;;;10.57;5.70;;;10.70;99.90;;;;;;4923524;29;20035;-81
2022/11/07 00:04:32;;;;;;;13.30;5.97;;;10.70;99.90;;;;;;4938751;29;20047;-81
2022/11/07 00:06:58;;;;;;;10.77;5.10;;;10.70;99.90;;;;;;4938822;29;20035;-82
2022/11/07 00:09:24;;;;;;;14.18;5.82;;;10.80;99.90;;;;;;4922875;29;20039;-81
2022/11/07 00:11:50;;;;;;;9.60;5.07;;;10.80;99.90;;;;;;4938366;29;20050;-81
2022/11/07 00:14:16;;;;;;;11.38;5.32;;;10.90;99.90;;;;;;4955371;29;20160;-82
2022/11/07 00:16:43;;;;;;;10.80;5.18;;;10.90;99.90;;;;;;4954779;29;20049;-81
2022/11/07 00:19:10;;;;;;;10.35;5.15;;;10.80;99.90;;;;;;4939450;29;20094;-81
2022/11/07 00:21:37;;;;;;;12.73;5.75;;;10.90;99.90;;;;;;4938515;29;20042;-81
2022/11/07 00:24:03;;;;;;;11.55;5.50;;;10.90;99.90;;;;;;4938424;29;20057;-82
2022/11/07 00:26:28;;;;;;;11.45;4.95;;;10.90;99.90;;;;;;4920629;29;20408;-81
2022/11/07 00:28:54;;;;;;;16.23;5.45;;;10.90;99.90;;;;;;4922945;29;20048;-81
2022/11/07 00:31:19;;;;;;;11.35;5.20;;;11.00;99.90;;;;;;4922696;29;20069;-81
2022/11/07 00:33:45;;;;;;;9.48;4.97;;;10.90;99.90;;;;;;4907275;29;20039;-81
2022/11/07 00:36:17;;;;;;;15.07;5.38;;;10.90;99.90;;;;;;4937726;29;20097;-81
2022/11/07 00:38:43;;;;;;;12.27;5.05;;;11.00;99.90;;;;;;4938612;29;20077;-81
2022/11/07 00:41:09;;;;;;;12.68;5.32;;;10.90;99.90;;;;;;4922623;29;20504;-81
2022/11/07 00:43:34;;;;;;;9.75;4.60;;;10.90;99.90;;;;;;4954340;29;20044;-81
2022/11/07 00:46:04;;;;;;;10.00;4.90;;;10.80;99.90;;;;;;4938151;29;20106;-81
2022/11/07 00:48:31;;;;;;;11.90;4.50;;;10.80;99.90;;;;;;4938992;29;20130;-81
2022/11/07 00:50:56;;;;;;;11.98;5.13;;;10.70;99.90;;;;;;4920071;29;20038;-82
2022/11/07 00:53:22;;;;;;;14.70;5.50;;;10.70;99.90;;;;;;4933795;29;20031;-82
2022/11/07 00:55:48;;;;;;;14.35;5.18;;;11.30;99.90;;;;;;4945018;29;20034;-82
2022/11/07 00:58:15;;;;;;;15.40;5.20;;;10.80;99.90;;;;;;4925863;29;20059;-81
2022/11/07 01:00:41;;;;;;;11.10;4.55;;;10.80;99.90;;;;;;4938658;29;20046;-82
2022/11/07 01:05:57;;;;;;;9.20;4.53;;;10.90;99.90;;;;;;4942875;29;20046;-82
2022/11/07 01:08:23;;;;;;;9.10;4.47;;;11.00;99.90;;;;;;4938086;29;20043;-82
2022/11/07 01:10:49;;;;;;;11.63;4.63;;;11.00;99.90;;;;;;4938137;29;20101;-81
2022/11/07 01:13:14;;;;;;;16.15;4.82;;;11.00;99.90;;;;;;4922716;29;20086;-81
2022/11/07 01:15:41;;;;;;;10.10;5.15;;;11.00;99.90;;;;;;4937995;29;20043;-82
2022/11/07 01:18:06;;;;;;;11.70;4.88;;;11.00;99.90;;;;;;4947958;29;20094;-81
2022/11/07 01:20:32;;;;;;;11.10;4.80;;;11.00;99.90;;;;;;4921474;29;20035;-81
2022/11/07 01:22:58;;;;;;;9.60;4.97;;;11.00;99.90;;;;;;4918449;29;20039;-81
2022/11/07 01:25:23;;;;;;;10.65;4.70;;;11.00;99.90;;;;;;4887927;29;20145;-82
2022/11/07 01:27:49;;;;;;;12.00;4.72;;;11.00;99.90;;;;;;4920349;29;20036;-82
2022/11/07 01:30:15;;;;;;;12.20;4.70;;;11.10;99.90;;;;;;4937029;28;20043;-82
2022/11/07 01:32:40;;;;;;;12.57;4.13;;;11.10;99.90;;;;;;4918901;29;20052;-82
2022/11/07 01:35:06;;;;;;;13.27;4.90;;;11.10;99.90;;;;;;4903402;29;20082;-81
2022/11/07 01:37:32;;;;;;;11.73;4.85;;;11.20;99.90;;;;;;4920779;29;20090;-82
2022/11/07 01:39:58;;;;;;;10.48;4.97;;;11.20;99.90;;;;;;4925599;29;20472;-81
2022/11/07 01:42:24;;;;;;;14.20;5.07;;;11.20;99.90;;;;;;4941628;29;20522;-82
2022/11/07 01:44:57;;;;;;;11.48;3.80;;;11.20;99.90;;;;;;4937213;29;20038;-81
2022/11/07 01:47:30;;;;;;;11.25;3.70;;;11.20;99.90;;;;;;4937961;29;20424;-81
2022/11/07 01:49:56;;;;;;;9.10;3.65;;;11.20;99.90;;;;;;4940656;29;20068;-82
2022/11/07 01:52:33;;;;;;;9.50;4.20;;;11.30;99.90;;;;;;4925205;29;20043;-81
2022/11/07 01:55:07;;;;;;;11.52;3.97;;;11.30;99.90;;;;;;4941209;29;20555;-81
2022/11/07 01:57:58;;;;;;;10.88;4.18;;;11.30;99.90;;;;;;4932389;29;20391;-82
2022/11/07 02:00:24;;;;;;;15.63;4.45;;;11.30;99.90;;;;;;4938126;29;20046;-81
2022/11/07 02:02:57;;;;;;;12.40;3.95;;;11.30;99.90;;;;;;4915235;29;20050;-82
2022/11/07 02:05:44;;;;;;;11.50;4.50;;;11.30;99.90;;;;;;4922485;29;20555;-82
2022/11/07 02:08:11;;;;;;;14.20;4.40;;;11.30;99.90;;;;;;4941225;29;20086;-82
2022/11/07 02:10:38;;;;;;;7.97;3.78;;;11.30;99.90;;;;;;4940642;29;20424;-82
2022/11/07 02:13:05;;;;;;;11.57;3.90;;;11.30;99.90;;;;;;4956123;29;20070;-81
2022/11/07 02:15:33;;;;;;;11.40;3.90;;;11.30;99.90;;;;;;4922699;29;20086;-82
2022/11/07 02:18:00;;;;;;;11.20;4.57;;;11.40;99.90;;;;;;4927513;29;20087;-82
2022/11/07 02:20:26;;;;;;;10.68;4.53;;;11.40;99.90;;;;;;4924283;29;20420;-82
2022/11/07 02:22:55;;;;;;;11.07;4.75;;;11.40;99.90;;;;;;4919172;29;20099;-82
2022/11/07 02:25:21;;;;;;;10.98;4.28;;;11.40;99.90;;;;;;4938555;29;20047;-81
2022/11/07 02:27:51;;;;;;;10.75;4.60;;;11.40;99.90;;;;;;4923900;29;20043;-82
2022/11/07 02:30:32;;;;;;;10.68;4.50;;;11.40;99.90;;;;;;4954413;29;20035;-82
2022/11/07 02:32:58;;;;;;;11.27;4.20;;;11.40;99.90;;;;;;4956425;29;20105;-82
2022/11/07 02:35:45;;;;;;;10.13;4.72;;;11.40;99.90;;;;;;4909732;29;20051;-82
2022/11/07 02:38:48;;;;;;;14.07;4.15;;;11.10;99.90;;;;;;4940644;29;20126;-82
2022/11/07 02:41:22;;;;;;;12.82;4.32;;;11.30;99.90;;;;;;4904825;29;20512;-82
2022/11/07 02:43:56;;;;;;;12.63;4.63;;;11.30;99.90;;;;;;4935047;29;20082;-82
2022/11/07 02:46:23;;;;;;;9.57;4.38;;;11.30;99.90;;;;;;4940547;29;20055;-82
2022/11/07 02:48:53;;;;;;;16.27;4.40;;;11.30;99.90;;;;;;4924348;29;20040;-81
2022/11/07 02:51:19;;;;;;;10.65;4.80;;;11.30;99.90;;;;;;4940271;29;20126;-82
2022/11/07 02:53:45;;;;;;;12.13;4.72;;;11.30;99.90;;;;;;4917715;29;20082;-82
2022/11/07 02:56:11;;;;;;;15.25;4.53;;;11.30;99.90;;;;;;4916567;29;20122;-82
2022/11/07 02:58:37;;;;;;;15.68;5.20;;;11.20;99.90;;;;;;4955049;29;20066;-82
2022/11/07 03:01:07;;;;;;;14.75;4.80;;;11.20;99.90;;;;;;4940545;29;20502;-82
2022/11/07 03:03:41;;;;;;;13.25;4.47;;;11.20;99.90;;;;;;4939871;29;20051;-82
2022/11/07 03:06:09;;;;;;;14.30;4.60;;;11.20;99.90;;;;;;4952513;29;20111;-82
2022/11/07 03:08:35;;;;;;;11.77;4.55;;;11.20;99.90;;;;;;4932187;29;20118;-82
2022/11/07 03:11:01;;;;;;;11.52;4.25;;;11.20;99.90;;;;;;4939958;29;20131;-82
2022/11/07 03:13:27;;;;;;;12.32;4.28;;;11.20;99.90;;;;;;4923925;29;20081;-82
2022/11/07 03:15:52;;;;;;;12.98;4.18;;;11.20;99.90;;;;;;4955326;29;20503;-82
2022/11/07 03:18:18;;;;;;;12.13;4.40;;;11.20;99.90;;;;;;4952586;29;20099;-82
2022/11/07 03:20:44;;;;;;;14.00;4.40;;;11.20;99.90;;;;;;4926096;29;20050;-82
2022/11/07 03:23:11;;;;;;;12.60;4.38;;;11.20;99.90;;;;;;4948552;29;20054;-82
2022/11/07 03:25:37;;;;;;;15.40;4.95;;;11.20;99.90;;;;;;4952501;29;20539;-82
2022/11/07 03:28:03;;;;;;;15.13;4.63;;;11.20;99.90;;;;;;4939741;29;20074;-82
2022/11/07 03:30:29;;;;;;;14.02;4.65;;;11.20;99.90;;;;;;4954935;28;20047;-82
2022/11/07 03:32:56;;;;;;;13.90;4.35;;;11.20;99.90;;;;;;4939538;29;20050;-82
2022/11/07 03:35:22;;;;;;;14.13;4.25;;;11.20;99.90;;;;;;4935761;29;20388;-81
2022/11/07 03:37:48;;;;;;;14.30;4.25;;;11.20;99.90;;;;;;4909586;29;20039;-82
2022/11/07 03:40:15;;;;;;;18.05;5.43;;;11.20;99.90;;;;;;4939151;29;20049;-82
2022/11/07 03:42:42;;;;;;;13.57;4.53;;;11.20;99.90;;;;;;4923386;29;20079;-82
2022/11/07 03:45:10;;;;;;;10.52;4.40;;;11.30;99.90;;;;;;4955257;29;20039;-82
2022/11/07 03:47:38;;;;;;;12.32;4.55;;;11.20;99.90;;;;;;4947138;29;20520;-82
2022/11/07 03:50:04;;;;;;;12.82;4.45;;;11.20;99.90;;;;;;4948748;29;20075;-82
2022/11/07 03:52:30;;;;;;;11.52;4.45;;;11.20;99.90;;;;;;4939144;29;20046;-82
2022/11/07 03:54:56;;;;;;;13.18;4.10;;;11.20;99.90;;;;;;4939373;29;20408;-82
2022/11/07 03:57:21;;;;;;;12.32;4.18;;;11.20;99.90;;;;;;4939280;29;20082;-82
2022/11/07 03:59:47;;;;;;;14.00;4.97;;;11.30;99.90;;;;;;4922617;29;20046;-82
2022/11/07 04:02:13;;;;;;;10.10;3.85;;;11.20;99.90;;;;;;4937751;29;20050;-82
2022/11/07 04:04:39;;;;;;;11.30;4.35;;;11.20;99.90;;;;;;4934976;29;20043;-82
2022/11/07 04:07:04;;;;;;;10.68;4.20;;;11.20;99.90;;;;;;4954915;29;20062;-82
2022/11/07 04:09:30;;;;;;;14.13;4.00;;;11.20;99.90;;;;;;4907655;29;20047;-82
2022/11/07 04:17:25;;;;;;;14.40;5.15;;;11.20;99.90;;;;;;4940603;29;20130;-82
2022/11/07 04:19:54;;;;;;;15.98;4.60;;;11.20;99.90;;;;;;4936105;29;20129;-82
2022/11/07 04:22:21;;;;;;;13.65;4.45;;;11.10;99.90;;;;;;4936943;29;20102;-82
2022/11/07 04:24:47;;;;;;;12.23;4.47;;;11.20;99.90;;;;;;4939356;29;20142;-82
2022/11/07 04:30:17;;;;;;;12.90;4.57;;;11.10;99.90;;;;;;4954478;29;20050;-82
2022/11/07 04:32:47;;;;;;;11.45;4.78;;;11.00;99.90;;;;;;4937518;29;20039;-82
2022/11/07 04:35:13;;;;;;;12.32;4.57;;;11.00;99.90;;;;;;4936221;29;20051;-82
2022/11/07 04:37:39;;;;;;;11.75;4.72;;;11.00;99.90;;;;;;4954304;29;20570;-82
2022/11/07 04:40:06;;;;;;;12.07;4.68;;;11.00;99.90;;;;;;4938484;29;20500;-82
2022/11/07 04:42:31;;;;;;;13.82;4.47;;;11.00;99.90;;;;;;4938350;29;20039;-82
2022/11/07 04:44:57;;;;;;;14.57;4.80;;;11.00;99.90;;;;;;4922540;29;20558;-82
2022/11/07 04:47:23;;;;;;;15.05;4.45;;;11.00;99.90;;;;;;4920855;29;20110;-82
2022/11/07 04:49:48;;;;;;;8.43;4.40;;;11.00;99.90;;;;;;4916997;29;20504;-82
2022/11/07 04:52:14;;;;;;;12.40;4.60;;;11.00;99.90;;;;;;4917612;29;20042;-82
2022/11/07 04:54:40;;;;;;;15.18;5.05;;;10.90;99.90;;;;;;4935126;29;20099;-82
2022/11/07 04:57:05;;;;;;;15.85;4.93;;;11.00;99.90;;;;;;4919965;29;20071;-82
2022/11/07 04:59:31;;;;;;;8.25;4.47;;;11.00;99.90;;;;;;4920736;29;20535;-82
2022/11/07 05:01:57;;;;;;;13.20;4.72;;;10.90;99.90;;;;;;4953772;28;20538;-82
2022/11/07 05:04:22;;;;;;;14.45;4.35;;;10.90;99.90;;;;;;4939029;29;20039;-81
2022/11/07 05:06:48;;;;;;;14.07;4.82;;;11.00;99.90;;;;;;4945435;29;20078;-81
2022/11/07 05:09:16;;;;;;;16.40;4.97;;;10.90;99.90;;;;;;4951740;29;20078;-82
2022/11/07 05:11:45;;;;;;;18.80;4.65;;;11.00;99.90;;;;;;4936021;29;20102;-82
2022/11/07 05:14:12;;;;;;;11.77;4.65;;;10.90;99.90;;;;;;4918627;29;20050;-82
2022/11/07 05:16:38;;;;;;;9.95;4.55;;;10.90;99.90;;;;;;4951497;29;20051;-82
2022/11/07 05:19:04;;;;;;;12.75;4.30;;;10.90;99.90;;;;;;4942732;29;20130;-82
2022/11/07 05:21:30;;;;;;;9.35;3.92;;;10.90;99.90;;;;;;4942502;29;20153;-82
2022/11/07 05:23:55;;;;;;;11.60;3.90;;;10.90;99.90;;;;;;4926436;29;20139;-82
2022/11/07 05:26:21;;;;;;;12.02;3.85;;;10.90;99.90;;;;;;4942086;29;20094;-82
2022/11/07 05:28:47;;;;;;;12.82;3.60;;;11.00;99.90;;;;;;4924883;29;20042;-82
2022/11/07 05:31:15;;;;;;;13.70;4.15;;;11.00;99.90;;;;;;4922199;29;20039;-82
2022/11/07 05:33:42;;;;;;;10.82;3.20;;;11.10;99.90;;;;;;4923211;29;20162;-82
2022/11/07 05:36:10;;;;;;;12.35;3.97;;;11.10;99.90;;;;;;4955220;29;20047;-82
2022/11/07 05:38:35;;;;;;;10.88;3.95;;;11.20;99.90;;;;;;4941584;29;20059;-82
2022/11/07 05:41:03;;;;;;;14.95;4.30;;;11.20;99.90;;;;;;4925952;29;20119;-82
2022/11/07 05:43:28;;;;;;;13.38;4.53;;;11.20;99.90;;;;;;4941258;29;20102;-82
2022/11/07 05:45:58;;;;;;;12.48;4.88;;;11.20;99.90;;;;;;4941930;29;20034;-81
2022/11/07 05:48:24;;;;;;;11.70;4.93;;;11.20;99.90;;;;;;4925658;29;20051;-82
2022/11/07 05:50:50;;;;;;;17.40;5.38;;;11.20;99.90;;;;;;4941843;29;20046;-82
2022/11/07 05:53:16;;;;;;;12.82;4.07;;;11.30;99.90;;;;;;4925478;29;20070;-82
2022/11/07 05:55:41;;;;;;;17.98;5.45;;;11.20;99.90;;;;;;4924715;29;20122;-82
2022/11/07 05:58:10;;;;;;;21.55;6.00;;;11.20;99.90;;;;;;4952800;29;20506;-82
2022/11/07 06:00:36;;;;;;;16.67;4.78;;;11.20;99.90;;;;;;4940102;29;20050;-82
2022/11/07 06:03:02;;;;;;;15.77;5.35;;;11.10;99.90;;;;;;4925477;29;20380;-82
2022/11/07 06:05:28;;;;;;;16.02;6.60;;;11.10;99.90;;;;;;4934074;29;20044;-81
2022/11/07 06:07:54;;;;;;;15.52;6.30;;;11.10;99.90;;;;;;4940059;29;20122;-82
2022/11/07 06:10:21;;;;;;;22.42;6.82;;;11.00;99.90;;;;;;4941225;29;20114;-82
2022/11/07 06:12:55;;;;;;;16.73;5.80;;;11.90;99.90;;;;;;4934509;29;20453;-81
2022/11/07 06:15:20;;;;;;;14.52;5.97;;;11.00;99.90;;;;;;4941971;29;20106;-82
2022/11/07 06:17:46;;;;;;;14.45;5.78;;;11.00;99.90;;;;;;4925406;29;20135;-82
2022/11/07 06:20:12;;;;;;;17.73;6.43;;;11.00;99.90;;;;;;4924893;29;20468;-82
2022/11/07 06:22:37;;;;;;;15.80;5.65;;;11.00;99.90;;;;;;4908911;28;20061;-81
2022/11/07 06:25:03;;;;;;;24.63;6.28;;;11.00;99.90;;;;;;4940467;29;20086;-81
2022/11/07 06:27:30;;;;;;;13.95;6.45;;;11.00;99.90;;;;;;4924467;29;20045;-81
2022/11/07 06:29:55;;;;;;;15.90;5.95;;;11.00;99.90;;;;;;4923168;29;20066;-81
2022/11/07 06:32:21;;;;;;;16.27;6.13;;;11.00;99.90;;;;;;4920980;29;20082;-82
2022/11/07 06:34:47;;;;;;;13.52;5.90;;;11.10;99.90;;;;;;4924804;29;20043;-81
2022/11/07 06:37:12;;;;;;;10.80;5.22;;;11.10;99.90;;;;;;4909014;29;20134;-81
2022/11/07 06:39:38;;;;;;;14.90;5.28;;;11.10;99.90;;;;;;4908457;29;20039;-81
2022/11/07 06:42:04;;;;;;;20.02;5.93;;;11.10;99.90;;;;;;4924867;29;20039;-82
2022/11/07 06:44:29;;;;;;;21.35;5.88;;;11.20;99.90;;;;;;4908361;29;20094;-81
2022/11/07 06:46:55;;;;;;;16.63;6.03;;;11.20;99.90;;;;;;4954757;29;20122;-81
2022/11/07 06:49:21;;;;;;;23.02;7.20;;;12.40;99.90;;;;;;4908350;29;20043;-81
2022/11/07 06:51:47;;;;;;;16.92;6.05;;;11.30;99.90;;;;;;4908632;29;20087;-81
2022/11/07 06:54:12;;;;;;;15.98;5.82;;;11.30;99.90;;;;;;4923964;29;20196;-81
2022/11/07 06:56:38;;;;;;;12.75;5.50;;;11.30;99.90;;;;;;4940343;29;20039;-81
2022/11/07 06:59:04;;;;;;;23.58;7.47;;;11.20;99.90;;;;;;4924803;29;20047;-81
2022/11/07 07:01:29;;;;;;;16.73;6.00;;;11.30;99.90;;;;;;4924029;29;20062;-81
2022/11/07 07:03:55;;;;;;;20.17;6.82;;;11.30;99.90;;;;;;4923896;29;20138;-81
2022/11/07 07:06:21;;;;;;;15.77;5.82;;;11.30;99.90;;;;;;4924414;29;20090;-82
2022/11/07 07:08:47;;;;;;;16.42;6.30;;;11.30;99.90;;;;;;4909213;29;20050;-83
2022/11/07 07:11:14;;;;;;;17.33;5.63;;;11.70;99.90;;;;;;4956750;29;20038;-81
2022/11/07 07:13:40;;;;;;;15.73;5.80;;;11.30;99.90;;;;;;4940384;29;20047;-81
2022/11/07 07:16:07;;;;;;;17.75;6.18;;;11.40;99.90;;;;;;4936730;29;20039;-82
2022/11/07 07:18:33;;;;;;;15.70;5.63;;;11.40;99.90;;;;;;4941496;29;20034;-81
2022/11/07 07:21:05;;;;;;;18.30;5.30;;;11.40;99.90;;;;;;4906729;29;20044;-80
2022/11/07 07:23:33;;;;;;;17.65;5.32;;;11.40;99.90;;;;;;4924011;29;20131;-81
2022/11/07 07:26:01;;;;;;;15.70;5.80;;;11.40;99.90;;;;;;4949462;29;20396;-81
2022/11/07 07:28:26;;;;;;;15.50;5.32;;;11.50;99.90;;;;;;4952339;29;20448;-81
2022/11/07 07:30:52;;;;;;;13.63;4.82;;;11.60;99.90;;;;;;4923699;29;20110;-81
2022/11/07 07:33:19;;;;;;;16.13;5.22;;;11.60;99.90;;;;;;4956058;29;20145;-80
2022/11/07 07:35:45;;;;;;;14.95;4.90;;;11.60;99.90;;;;;;4915244;29;20039;-81
2022/11/07 07:38:10;;;;;;;18.73;5.90;;;11.70;99.90;;;;;;4908308;29;20047;-81
2022/11/07 07:40:36;;;;;;;20.15;4.95;;;11.70;99.90;;;;;;4923867;29;20083;-80
2022/11/07 07:43:02;;;;;;;14.50;4.80;;;11.70;99.90;;;;;;4939205;29;20039;-81
2022/11/07 07:45:28;;;;;;;11.90;4.65;;;11.70;99.90;;;;;;4923842;29;20050;-81
2022/11/07 07:48:00;;;;;;;15.15;4.70;;;11.70;99.90;;;;;;4923371;29;20054;-82
2022/11/07 07:50:25;;;;;;;21.33;5.32;;;11.80;99.90;;;;;;4919709;29;20079;-79
2022/11/07 07:52:56;;;;;;;15.88;4.97;;;11.80;99.90;;;;;;4907107;29;20090;-79
2022/11/07 07:55:22;;;;;;;15.80;5.63;;;11.80;99.90;;;;;;4955027;29;20054;-79
2022/11/07 07:57:47;;;;;;;15.55;5.60;;;11.80;99.90;;;;;;4939241;29;20047;-79
2022/11/07 08:00:13;;;;;;;16.95;5.40;;;11.80;99.90;;;;;;4923499;29;20054;-79
2022/11/07 08:02:42;;;;;;;11.43;4.60;;;11.90;99.90;;;;;;4922969;29;20047;-80
2022/11/07 08:05:10;;;;;;;14.23;4.15;;;11.90;99.90;;;;;;4921994;29;20391;-82
2022/11/07 08:07:35;;;;;;;17.40;4.90;;;11.90;99.90;;;;;;4923240;29;20035;-80
2022/11/07 08:10:01;;;;;;;15.82;4.82;;;11.90;99.90;;;;;;4954900;29;20391;-79
2022/11/07 08:12:27;;;;;;;14.60;4.93;;;12.00;99.90;;;;;;4954569;29;20061;-79
2022/11/07 08:14:53;;;;;;;20.35;5.00;;;12.00;99.90;;;;;;4922653;29;20047;-80
2022/11/07 08:17:18;;;;;;;17.45;4.55;;;12.00;99.90;;;;;;4917779;29;20073;-80
2022/11/07 08:19:44;;;;;;;16.23;3.72;;;12.00;99.90;;;;;;4918929;29;20044;-82
2022/11/07 08:22:10;;;;;;;13.70;3.97;;;12.10;99.90;;;;;;4932998;29;20062;-82
2022/11/07 08:24:35;;;;;;;14.52;4.57;;;12.00;99.90;;;;;;4941651;28;20066;-80
2022/11/07 08:27:01;;;;;;;18.83;5.03;;;12.10;99.90;;;;;;4918587;29;20082;-82
2022/11/07 08:29:27;;;;;;;9.65;3.50;;;12.10;99.90;;;;;;4917902;29;20319;-82
2022/11/07 08:31:53;;;;;;;15.50;4.47;;;12.10;99.90;;;;;;4927995;29;20476;-81
2022/11/07 08:34:18;;;;;;;14.80;3.78;;;12.10;99.90;;;;;;4902306;29;20039;-81
2022/11/07 08:36:44;;;;;;;18.17;4.57;;;12.10;99.90;;;;;;4934536;29;20106;-81
2022/11/07 08:39:10;;;;;;;13.55;3.80;;;12.10;99.90;;;;;;4920948;29;20496;-81
2022/11/07 08:41:36;;;;;;;17.63;4.28;;;12.20;99.90;;;;;;4948875;29;20433;-80
2022/11/07 08:44:01;;;;;;;16.70;3.78;;;12.20;99.90;;;;;;4935725;29;20151;-80
2022/11/07 08:46:27;;;;;;;14.50;3.78;;;12.20;99.90;;;;;;4919659;29;20105;-81
2022/11/07 08:48:53;;;;;;;13.13;3.65;;;12.20;99.90;;;;;;4936557;29;20051;-81
2022/11/07 08:51:18;;;;;;;15.90;4.35;;;12.30;99.90;;;;;;4904078;29;20112;-80
2022/11/07 08:53:44;;;;;;;13.77;3.42;;;12.30;99.90;;;;;;4918973;29;20506;-81
2022/11/07 08:56:10;;;;;;;9.77;3.22;;;12.30;99.90;;;;;;4918616;29;20060;-80
2022/11/07 08:58:36;;;;;;;16.08;3.78;;;12.40;99.90;;;;;;4921530;29;20039;-83
2022/11/07 09:01:06;;;;;;;17.45;3.67;;;12.30;99.90;;;;;;4937221;28;20075;-82
2022/11/07 09:03:35;;;;;;;12.50;3.42;;;12.40;99.90;;;;;;4953792;28;20086;-81
2022/11/07 09:06:01;;;;;;;17.70;3.65;;;12.50;99.90;;;;;;4954621;28;20051;-82
2022/11/07 09:08:27;;;;;;;19.00;3.67;;;12.50;99.90;;;;;;4922962;29;20106;-81
2022/11/07 09:10:52;;;;;;;14.18;3.63;;;12.50;99.90;;;;;;4937695;29;20075;-79
2022/11/07 09:13:19;;;;;;;15.85;4.00;;;12.60;99.90;;;;;;4945613;29;20051;-78
2022/11/07 09:15:45;;;;;;;15.70;3.95;;;12.60;99.90;;;;;;4915921;29;20043;-79
2022/11/07 09:18:11;;;;;;;16.30;3.72;;;12.60;99.90;;;;;;4950394;29;20043;-79
2022/11/07 09:20:36;;;;;;;14.73;3.75;;;12.70;99.90;;;;;;4935427;29;20043;-80
2022/11/07 09:23:02;;;;;;;16.85;3.30;;;12.70;99.90;;;;;;4949960;29;20047;-80
2022/11/07 09:25:28;;;;;;;15.40;3.80;;;12.80;99.90;;;;;;4917814;29;20404;-79
2022/11/07 09:27:54;;;;;;;12.88;3.80;;;12.80;99.90;;;;;;4931372;29;20126;-81
2022/11/07 09:30:21;;;;;;;17.05;4.18;;;12.80;99.90;;;;;;4931855;29;20055;-82
2022/11/07 09:32:46;;;;;;;12.43;3.55;;;12.80;99.90;;;;;;4920889;29;20417;-81
2022/11/07 09:35:13;;;;;;;11.55;3.72;;;12.70;99.90;;;;;;4947682;29;20074;-82
2022/11/07 09:37:42;;;;;;;15.70;3.80;;;12.70;99.90;;;;;;4920092;29;20039;-82
2022/11/07 09:40:39;;;;;;;15.02;4.63;;;12.70;99.90;;;;;;4920893;29;20054;-81
2022/11/07 09:43:23;;;;;;;;;;;12.70;99.90;;;;;;4906242;28;20051;-82
2022/11/07 09:45:56;;;;;;;14.95;4.15;;;12.60;99.90;;;;;;4944707;29;20379;-82
2022/11/07 09:48:24;;;;;;;16.42;4.57;;;12.70;99.90;;;;;;4940704;28;20066;-82
2022/11/07 09:50:51;;;;;;;11.63;3.80;;;12.70;99.90;;;;;;4935815;29;20039;-84
2022/11/07 09:53:16;;;;;;;12.73;4.35;;;12.70;99.90;;;;;;4918342;29;20086;-81
2022/11/07 09:55:47;;;;;;;14.15;4.30;;;12.80;99.90;;;;;;4945767;29;20341;-82
2022/11/07 09:58:25;;;;;;;12.73;4.10;;;12.80;99.90;;;;;;4953249;28;20106;-80
2022/11/07 10:00:53;;;;;;;11.27;3.95;;;12.90;99.90;;;;;;4936377;29;20051;-80
2022/11/07 10:03:19;;;;;;;12.90;3.85;;;12.90;99.90;;;;;;4955267;29;20051;-81
2022/11/07 10:06:13;;;;;;;13.15;3.97;;;13.00;99.90;;;;;;4946994;29;20047;-81
2022/11/07 10:09:01;;;;;;;8.45;3.38;;;13.00;99.90;;;;;;4928226;29;20799;-81
2022/11/07 10:11:39;;;;;;;12.77;3.40;;;13.10;99.90;;;;;;4943319;29;20443;-80
2022/11/07 10:14:52;;;;;;;12.63;3.58;;;13.20;99.90;;;;;;4939945;29;20043;-82
2022/11/07 10:17:52;;;;;;;11.70;3.58;;;13.30;99.90;;;;;;4914607;29;20051;-81
2022/11/07 10:20:56;;;;;;;11.10;4.00;;;13.40;99.90;;;;;;4953838;29;20043;-81
2022/11/07 10:23:42;;;;;;;9.73;3.53;;;13.40;99.90;;;;;;4906751;29;20517;-82
2022/11/07 10:26:10;;;;;;;15.07;3.58;;;13.40;99.90;;;;;;4949770;29;20126;-81
2022/11/07 10:28:52;;;;;;;17.80;4.22;;;13.40;99.90;;;;;;4939401;29;20405;-82
2022/11/07 10:31:18;;;;;;;13.43;3.35;;;13.50;99.90;;;;;;4954741;28;20054;-81
2022/11/07 10:34:04;;;;;;;16.40;3.97;;;13.50;99.90;;;;;;4908102;29;20047;-81
2022/11/07 10:36:31;;;;;;;17.45;3.88;;;13.60;99.90;;;;;;4953533;29;20051;-82
2022/11/07 10:38:57;;;;;;;14.25;3.63;;;13.70;99.90;;;;;;4938717;29;20047;-82
2022/11/07 10:41:25;;;;;;;12.02;3.85;;;13.70;99.90;;;;;;4939604;29;20385;-82
2022/11/07 10:44:13;;;;;;;14.55;3.53;;;13.70;99.90;;;;;;4954775;28;20047;-81
2022/11/07 10:46:45;;;;;;;14.85;3.75;;;13.70;99.90;;;;;;4938760;29;20098;-82
2022/11/07 10:49:22;;;;;;;13.63;2.88;;;13.70;99.90;;;;;;4937156;29;20040;-82
2022/11/07 10:51:48;;;;;;;9.55;3.08;;;13.70;99.90;;;;;;4950888;28;20127;-81
2022/11/07 10:54:28;;;;;;;10.18;2.80;;;13.70;99.90;;;;;;4939017;29;20039;-81
2022/11/07 10:57:14;;;;;;;14.80;3.80;;;13.80;99.90;;;;;;4952081;28;20039;-81
2022/11/07 10:59:54;;;;;;;10.13;2.95;;;13.80;99.90;;;;;;4950125;29;20122;-81
2022/11/07 11:02:31;;;;;;;14.02;3.15;;;13.80;99.90;;;;;;4950799;29;20052;-82
2022/11/07 11:05:02;;;;;;;9.55;3.00;;;13.80;99.90;;;;;;4941479;29;20553;-81
2022/11/07 11:07:36;;;;;;;16.08;3.35;;;13.80;99.90;;;;;;4954280;28;20043;-82
2022/11/07 11:10:03;;;;;;;12.60;3.50;;;14.00;99.90;;;;;;4946667;28;20110;-84
2022/11/07 11:12:32;;;;;;;13.27;3.25;;;14.00;99.90;;;;;;4923101;28;20515;-82
2022/11/07 11:15:14;;;;;;;9.77;3.00;;;14.10;99.90;;;;;;4934712;29;20039;-80
2022/11/07 11:17:40;;;;;;;9.75;3.10;;;14.10;99.90;;;;;;4936134;29;20028;-80
2022/11/07 11:20:24;;;;;;;12.05;3.08;;;14.20;99.90;;;;;;4913520;29;20048;-79
2022/11/07 11:22:52;;;;;;;10.93;3.20;;;14.20;99.90;;;;;;4954434;28;20104;-80
2022/11/07 11:25:20;;;;;;;12.45;3.30;;;14.10;99.90;;;;;;4937288;29;20058;-79
2022/11/07 11:28:00;;;;;;;13.85;4.28;;;14.10;99.90;;;;;;4906414;29;20388;-80
2022/11/07 11:30:28;;;;;;;12.98;3.00;;;14.10;99.90;;;;;;4949301;29;20048;-80
2022/11/07 11:33:16;;;;;;;12.32;3.30;;;14.20;99.90;;;;;;4909208;29;20043;-79
2022/11/07 11:35:48;;;;;;;15.02;3.40;;;14.20;99.90;;;;;;4950442;29;20055;-80
2022/11/07 11:38:22;;;;;;;11.05;3.20;;;14.20;99.90;;;;;;4935299;29;20046;-81
2022/11/07 11:40:55;;;;;;;15.13;4.00;;;14.20;99.90;;;;;;4938351;29;20043;-81
2022/11/07 11:43:25;;;;;;;10.80;3.22;;;14.20;99.90;;;;;;4954315;29;20039;-82
2022/11/07 11:46:12;;;;;;;16.17;3.20;;;14.20;99.90;;;;;;4938127;29;20112;-82
2022/11/07 11:48:50;;;;;;;13.00;3.67;;;14.20;99.90;;;;;;4934169;29;20407;-82
2022/11/07 11:51:39;;;;;;;10.25;3.05;;;14.30;99.90;;;;;;4922915;29;20059;-81
2022/11/07 11:54:11;;;;;;;10.73;3.25;;;14.30;99.90;;;;;;4938823;29;20039;-82
2022/11/07 11:56:48;;;;;;;11.77;3.30;;;14.30;99.90;;;;;;4938050;29;20047;-82
2022/11/07 11:59:46;;;;;;;12.82;3.00;;;14.30;99.90;;;;;;4938162;29;20126;-81
2022/11/07 12:02:36;;;;;;;9.52;3.13;;;14.20;99.90;;;;;;4937485;29;20077;-82
2022/11/07 12:05:18;;;;;;;8.43;2.90;;;14.30;99.90;;;;;;4931595;28;20515;-82
2022/11/07 12:07:49;;;;;;;11.27;3.65;;;14.20;99.90;;;;;;4937786;29;20047;-82
2022/11/07 12:10:24;;;;;;;12.55;3.50;;;14.20;99.90;;;;;;4950528;29;20044;-82
2022/11/07 12:13:20;;;;;;;9.30;3.28;;;14.10;99.90;;;;;;4934352;29;20035;-81
2022/11/07 12:15:58;;;;;;;49.53;5.38;;;14.10;99.90;;;;;;4931703;28;20078;-81
2022/11/07 12:18:33;;;;;;;9.15;2.88;;;14.10;99.90;;;;;;4928712;29;20035;-81
2022/11/07 12:21:11;;;;;;;12.98;3.80;;;14.10;99.90;;;;;;4949018;28;20035;-81
2022/11/07 12:23:52;;;;;;;11.95;3.13;;;14.10;99.90;;;;;;4958273;28;20381;-82
2022/11/07 12:26:39;;;;;;;11.30;3.30;;;14.10;99.90;;;;;;4937616;28;20093;-82
2022/11/07 12:29:11;;;;;;;12.80;3.17;;;14.10;99.90;;;;;;4932642;29;20040;-81
2022/11/07 12:32:06;;;;;;;10.65;3.40;;;14.20;99.90;;;;;;4933314;28;20042;-82
2022/11/07 12:34:52;;;;;;;11.70;3.40;;;14.20;99.90;;;;;;4931155;29;20046;-82
2022/11/07 12:37:42;;;;;;;16.75;3.75;;;14.20;99.90;;;;;;4949991;28;20058;-82
2022/11/07 12:40:33;;;;;;;9.05;3.45;;;14.20;99.90;;;;;;4921991;29;20043;-81
2022/11/07 12:43:29;;;;;;;12.57;3.45;;;14.20;99.90;;;;;;4937271;29;20052;-82
2022/11/07 12:46:05;;;;;;;12.45;4.20;;;14.20;99.90;;;;;;4949851;29;20429;-81
2022/11/07 12:48:49;;;;;;;17.10;4.03;;;14.20;99.90;;;;;;4930628;29;20053;-82
2022/11/07 12:51:36;;;;;;;14.43;3.70;;;14.20;99.90;;;;;;4936315;29;20356;-82
2022/11/07 12:54:11;;;;;;;;;;;14.20;99.90;;;;;;4927466;29;20525;-81
2022/11/07 12:56:38;;;;;;;8.77;3.50;;;14.10;99.90;;;;;;4950762;29;19925;-82
2022/11/07 12:59:13;;;;;;;14.48;4.00;;;14.10;99.90;;;;;;4952227;29;20047;-82
2022/11/07 13:01:50;;;;;;;18.30;5.15;;;14.10;99.90;;;;;;4933996;29;20460;-81
2022/11/07 13:04:23;;;;;;;13.27;3.83;;;14.10;99.90;;;;;;4944289;29;20147;-82